sensor_id;sensor_type;location;lat;lon;timestamp;P1;durP1;ratioP1;P2;durP2;ratioP2
57567;SDS011;43403;51.948;5.922;2023-05-10T17:26:38;3.40;;;1.70;;
57567;SDS011;43403;51.948;5.922;2023-05-10T17:29:04;4.10;;;1.80;;
57567;SDS011;43403;51.948;5.922;2023-05-10T17:31:30;2.67;;;1.45;;
57567;SDS011;43403;51.948;5.922;2023-05-10T17:33:58;2.53;;;1.90;;
57567;SDS011;43403;51.948;5.922;2023-05-10T17:36:25;3.03;;;1.70;;
57567;SDS011;43403;51.948;5.922;2023-05-10T17:38:51;4.05;;;1.67;;
57567;SDS011;43403;51.948;5.922;2023-05-10T17:41:18;2.20;;;1.88;;
57567;SDS011;43403;51.948;5.922;2023-05-10T17:43:45;2.88;;;1.98;;
57567;SDS011;43403;51.948;5.922;2023-05-10T17:46:11;3.85;;;1.60;;
57567;SDS011;43403;51.948;5.922;2023-05-10T17:48:38;2.60;;;1.80;;
57567;SDS011;43403;51.948;5.922;2023-05-10T17:51:05;2.65;;;1.70;;
57567;SDS011;43403;51.948;5.922;2023-05-10T17:53:32;3.22;;;1.98;;
57567;SDS011;43403;51.948;5.922;2023-05-10T17:58:26;4.00;;;2.10;;
57567;SDS011;43403;51.948;5.922;2023-05-10T18:00:53;3.65;;;2.30;;
57567;SDS011;43403;51.948;5.922;2023-05-10T18:03:22;5.55;;;2.88;;
57567;SDS011;43403;51.948;5.922;2023-05-10T18:05:49;5.25;;;3.03;;
57567;SDS011;43403;51.948;5.922;2023-05-10T18:08:16;5.68;;;2.63;;
57567;SDS011;43403;51.948;5.922;2023-05-10T18:10:50;4.30;;;2.50;;
57567;SDS011;43403;51.948;5.922;2023-05-10T18:13:17;6.72;;;2.63;;
57567;SDS011;43403;51.948;5.922;2023-05-10T18:15:43;5.22;;;3.08;;
57567;SDS011;43403;51.948;5.922;2023-05-10T18:18:10;6.38;;;3.45;;
57567;SDS011;43403;51.948;5.922;2023-05-10T18:20:37;6.20;;;3.35;;
57567;SDS011;43403;51.948;5.922;2023-05-10T18:23:03;4.47;;;2.78;;
57567;SDS011;43403;51.948;5.922;2023-05-10T18:25:31;5.10;;;3.13;;
57567;SDS011;43403;51.948;5.922;2023-05-10T18:27:58;5.90;;;3.00;;
57567;SDS011;43403;51.948;5.922;2023-05-10T18:30:25;4.05;;;2.88;;
57567;SDS011;43403;51.948;5.922;2023-05-10T18:32:51;3.92;;;2.60;;
57567;SDS011;43403;51.948;5.922;2023-05-10T18:35:19;4.82;;;2.70;;
57567;SDS011;43403;51.948;5.922;2023-05-10T18:40:13;4.20;;;2.50;;
57567;SDS011;43403;51.948;5.922;2023-05-10T18:42:41;5.65;;;2.50;;
57567;SDS011;43403;51.948;5.922;2023-05-10T18:45:08;6.47;;;3.00;;
57567;SDS011;43403;51.948;5.922;2023-05-10T18:47:35;5.90;;;2.50;;
57567;SDS011;43403;51.948;5.922;2023-05-10T18:50:02;4.28;;;2.65;;
57567;SDS011;43403;51.948;5.922;2023-05-10T18:52:30;3.90;;;2.75;;
57567;SDS011;43403;51.948;5.922;2023-05-10T18:54:56;5.05;;;2.90;;
57567;SDS011;43403;51.948;5.922;2023-05-10T18:57:23;7.80;;;3.15;;
57567;SDS011;43403;51.948;5.922;2023-05-10T18:59:50;4.38;;;2.65;;
57567;SDS011;43403;51.948;5.922;2023-05-10T19:02:17;4.10;;;2.58;;
57567;SDS011;43403;51.948;5.922;2023-05-10T19:04:44;4.65;;;2.95;;
57567;SDS011;43403;51.948;5.922;2023-05-10T19:07:10;4.82;;;2.67;;
57567;SDS011;43403;51.948;5.922;2023-05-10T19:09:37;5.13;;;3.20;;
57567;SDS011;43403;51.948;5.922;2023-05-10T19:12:03;3.67;;;2.63;;
57567;SDS011;43403;51.948;5.922;2023-05-10T19:14:30;5.78;;;3.15;;
57567;SDS011;43403;51.948;5.922;2023-05-10T19:16:57;6.43;;;3.33;;
57567;SDS011;43403;51.948;5.922;2023-05-10T19:19:25;7.75;;;4.25;;
57567;SDS011;43403;51.948;5.922;2023-05-10T19:21:52;16.88;;;13.48;;
57567;SDS011;43403;51.948;5.922;2023-05-10T19:24:22;14.13;;;10.35;;
57567;SDS011;43403;51.948;5.922;2023-05-10T19:26:51;7.07;;;3.60;;
57567;SDS011;43403;51.948;5.922;2023-05-10T19:29:18;7.90;;;4.63;;
57567;SDS011;43403;51.948;5.922;2023-05-10T19:31:45;7.55;;;3.63;;
57567;SDS011;43403;51.948;5.922;2023-05-10T19:34:12;6.90;;;4.05;;
57567;SDS011;43403;51.948;5.922;2023-05-10T19:36:38;6.53;;;4.25;;
57567;SDS011;43403;51.948;5.922;2023-05-10T19:39:05;6.07;;;3.63;;
57567;SDS011;43403;51.948;5.922;2023-05-10T19:41:32;6.93;;;3.10;;
57567;SDS011;43403;51.948;5.922;2023-05-10T19:43:58;5.82;;;3.47;;
57567;SDS011;43403;51.948;5.922;2023-05-10T19:46:25;7.35;;;4.22;;
57567;SDS011;43403;51.948;5.922;2023-05-10T19:48:52;8.85;;;4.07;;
57567;SDS011;43403;51.948;5.922;2023-05-10T19:51:18;5.93;;;3.95;;
57567;SDS011;43403;51.948;5.922;2023-05-10T19:53:45;7.60;;;3.60;;
57567;SDS011;43403;51.948;5.922;2023-05-10T19:56:12;6.32;;;3.80;;
57567;SDS011;43403;51.948;5.922;2023-05-10T19:58:38;7.97;;;4.30;;
57567;SDS011;43403;51.948;5.922;2023-05-10T20:01:05;8.52;;;4.57;;
57567;SDS011;43403;51.948;5.922;2023-05-10T20:03:33;7.78;;;4.88;;
57567;SDS011;43403;51.948;5.922;2023-05-10T20:06:00;7.17;;;4.50;;
57567;SDS011;43403;51.948;5.922;2023-05-10T20:08:28;8.18;;;4.68;;
57567;SDS011;43403;51.948;5.922;2023-05-10T20:10:54;7.57;;;4.80;;
57567;SDS011;43403;51.948;5.922;2023-05-10T20:13:24;9.13;;;5.35;;
57567;SDS011;43403;51.948;5.922;2023-05-10T20:15:54;7.43;;;4.47;;
57567;SDS011;43403;51.948;5.922;2023-05-10T20:18:21;8.18;;;4.60;;
57567;SDS011;43403;51.948;5.922;2023-05-10T20:20:51;6.53;;;4.30;;
57567;SDS011;43403;51.948;5.922;2023-05-10T20:23:21;7.53;;;4.50;;
57567;SDS011;43403;51.948;5.922;2023-05-10T20:25:47;7.90;;;4.20;;
57567;SDS011;43403;51.948;5.922;2023-05-10T20:28:14;7.60;;;4.55;;
57567;SDS011;43403;51.948;5.922;2023-05-10T20:30:43;14.57;;;5.35;;
57567;SDS011;43403;51.948;5.922;2023-05-10T20:33:09;8.38;;;5.25;;
57567;SDS011;43403;51.948;5.922;2023-05-10T20:35:36;10.07;;;5.47;;
57567;SDS011;43403;51.948;5.922;2023-05-10T20:38:02;10.85;;;5.43;;
57567;SDS011;43403;51.948;5.922;2023-05-10T20:40:29;10.30;;;5.55;;
57567;SDS011;43403;51.948;5.922;2023-05-10T20:42:55;11.82;;;7.75;;
57567;SDS011;43403;51.948;5.922;2023-05-10T20:45:22;14.63;;;9.48;;
57567;SDS011;43403;51.948;5.922;2023-05-10T20:47:48;13.52;;;8.05;;
57567;SDS011;43403;51.948;5.922;2023-05-10T20:50:15;11.50;;;7.30;;
57567;SDS011;43403;51.948;5.922;2023-05-10T20:52:43;12.05;;;6.78;;
57567;SDS011;43403;51.948;5.922;2023-05-10T20:55:09;12.15;;;6.28;;
57567;SDS011;43403;51.948;5.922;2023-05-10T20:57:36;9.82;;;5.32;;
57567;SDS011;43403;51.948;5.922;2023-05-10T21:00:03;12.05;;;6.25;;
57567;SDS011;43403;51.948;5.922;2023-05-10T21:02:30;10.15;;;5.60;;
57567;SDS011;43403;51.948;5.922;2023-05-10T21:04:58;11.75;;;6.43;;
57567;SDS011;43403;51.948;5.922;2023-05-10T21:07:24;8.93;;;6.30;;
57567;SDS011;43403;51.948;5.922;2023-05-10T21:09:51;10.10;;;7.00;;
57567;SDS011;43403;51.948;5.922;2023-05-10T21:12:17;10.77;;;6.38;;
57567;SDS011;43403;51.948;5.922;2023-05-10T21:14:44;10.95;;;6.40;;
57567;SDS011;43403;51.948;5.922;2023-05-10T21:17:12;11.90;;;7.07;;
57567;SDS011;43403;51.948;5.922;2023-05-10T21:19:39;13.05;;;7.50;;
57567;SDS011;43403;51.948;5.922;2023-05-10T21:22:06;14.88;;;9.23;;
57567;SDS011;43403;51.948;5.922;2023-05-10T21:24:32;23.92;;;10.10;;
57567;SDS011;43403;51.948;5.922;2023-05-10T21:27:00;19.00;;;10.40;;
57567;SDS011;43403;51.948;5.922;2023-05-10T21:29:26;18.85;;;10.20;;
57567;SDS011;43403;51.948;5.922;2023-05-10T21:31:53;18.15;;;11.30;;
57567;SDS011;43403;51.948;5.922;2023-05-10T21:34:20;16.33;;;11.20;;
57567;SDS011;43403;51.948;5.922;2023-05-10T21:36:46;19.80;;;11.10;;
57567;SDS011;43403;51.948;5.922;2023-05-10T21:39:13;18.65;;;12.93;;
57567;SDS011;43403;51.948;5.922;2023-05-10T21:41:40;20.98;;;12.80;;
57567;SDS011;43403;51.948;5.922;2023-05-10T21:44:06;19.63;;;13.15;;
57567;SDS011;43403;51.948;5.922;2023-05-10T21:46:33;17.05;;;11.52;;
57567;SDS011;43403;51.948;5.922;2023-05-10T21:48:59;17.23;;;12.63;;
57567;SDS011;43403;51.948;5.922;2023-05-10T21:51:25;18.13;;;13.02;;
57567;SDS011;43403;51.948;5.922;2023-05-10T21:53:54;20.15;;;12.88;;
57567;SDS011;43403;51.948;5.922;2023-05-10T21:56:20;21.08;;;13.60;;
57567;SDS011;43403;51.948;5.922;2023-05-10T21:58:47;18.50;;;12.57;;
57567;SDS011;43403;51.948;5.922;2023-05-10T22:01:13;22.38;;;14.38;;
57567;SDS011;43403;51.948;5.922;2023-05-10T22:03:42;20.52;;;12.77;;
57567;SDS011;43403;51.948;5.922;2023-05-10T22:06:09;26.33;;;14.02;;
57567;SDS011;43403;51.948;5.922;2023-05-10T22:08:35;21.75;;;13.68;;
57567;SDS011;43403;51.948;5.922;2023-05-10T22:11:02;21.98;;;13.45;;
57567;SDS011;43403;51.948;5.922;2023-05-10T22:13:28;24.40;;;14.68;;
57567;SDS011;43403;51.948;5.922;2023-05-10T22:15:54;21.80;;;14.85;;
57567;SDS011;43403;51.948;5.922;2023-05-10T22:18:21;22.15;;;14.95;;
57567;SDS011;43403;51.948;5.922;2023-05-10T22:20:47;22.52;;;14.93;;
57567;SDS011;43403;51.948;5.922;2023-05-10T22:23:14;20.67;;;14.57;;
57567;SDS011;43403;51.948;5.922;2023-05-10T22:25:41;24.20;;;15.68;;
57567;SDS011;43403;51.948;5.922;2023-05-10T22:28:07;24.08;;;16.35;;
57567;SDS011;43403;51.948;5.922;2023-05-10T22:30:34;25.65;;;16.90;;
57567;SDS011;43403;51.948;5.922;2023-05-10T22:33:01;38.60;;;17.35;;
57567;SDS011;43403;51.948;5.922;2023-05-10T22:35:28;22.23;;;15.98;;
57567;SDS011;43403;51.948;5.922;2023-05-10T22:37:54;25.58;;;16.60;;
57567;SDS011;43403;51.948;5.922;2023-05-10T22:40:21;25.38;;;16.55;;
57567;SDS011;43403;51.948;5.922;2023-05-10T22:42:47;24.80;;;17.30;;
57567;SDS011;43403;51.948;5.922;2023-05-10T22:45:13;21.65;;;15.38;;
57567;SDS011;43403;51.948;5.922;2023-05-10T22:47:40;24.95;;;17.48;;
57567;SDS011;43403;51.948;5.922;2023-05-10T22:50:07;24.13;;;16.92;;
57567;SDS011;43403;51.948;5.922;2023-05-10T22:52:34;25.13;;;17.73;;
57567;SDS011;43403;51.948;5.922;2023-05-10T22:55:01;27.42;;;19.08;;
57567;SDS011;43403;51.948;5.922;2023-05-10T22:57:27;27.75;;;19.17;;
57567;SDS011;43403;51.948;5.922;2023-05-10T22:59:53;25.08;;;18.38;;
57567;SDS011;43403;51.948;5.922;2023-05-10T23:02:20;29.88;;;18.88;;
57567;SDS011;43403;51.948;5.922;2023-05-10T23:04:46;27.17;;;18.48;;
57567;SDS011;43403;51.948;5.922;2023-05-10T23:07:13;23.13;;;16.45;;
57567;SDS011;43403;51.948;5.922;2023-05-10T23:09:39;26.75;;;19.25;;
57567;SDS011;43403;51.948;5.922;2023-05-10T23:12:06;29.83;;;19.25;;
57567;SDS011;43403;51.948;5.922;2023-05-10T23:14:32;26.65;;;18.85;;
57567;SDS011;43403;51.948;5.922;2023-05-10T23:16:59;27.08;;;18.80;;
57567;SDS011;43403;51.948;5.922;2023-05-10T23:19:26;26.67;;;19.83;;
57567;SDS011;43403;51.948;5.922;2023-05-10T23:21:52;29.90;;;19.98;;
57567;SDS011;43403;51.948;5.922;2023-05-10T23:24:19;31.83;;;22.10;;
57567;SDS011;43403;51.948;5.922;2023-05-10T23:26:45;30.23;;;20.88;;
57567;SDS011;43403;51.948;5.922;2023-05-10T23:29:12;26.58;;;20.70;;
57567;SDS011;43403;51.948;5.922;2023-05-10T23:31:38;28.92;;;21.30;;
57567;SDS011;43403;51.948;5.922;2023-05-10T23:34:10;30.67;;;21.45;;
57567;SDS011;43403;51.948;5.922;2023-05-10T23:36:37;30.58;;;22.33;;
57567;SDS011;43403;51.948;5.922;2023-05-10T23:39:04;28.92;;;20.80;;
57567;SDS011;43403;51.948;5.922;2023-05-10T23:41:30;30.35;;;21.60;;
57567;SDS011;43403;51.948;5.922;2023-05-10T23:43:57;29.15;;;19.63;;
57567;SDS011;43403;51.948;5.922;2023-05-10T23:46:23;28.65;;;20.75;;
57567;SDS011;43403;51.948;5.922;2023-05-10T23:48:50;29.67;;;21.50;;
57567;SDS011;43403;51.948;5.922;2023-05-10T23:51:16;32.22;;;22.80;;
57567;SDS011;43403;51.948;5.922;2023-05-10T23:53:43;30.65;;;22.05;;
57567;SDS011;43403;51.948;5.922;2023-05-10T23:56:09;32.10;;;22.70;;
57567;SDS011;43403;51.948;5.922;2023-05-10T23:58:35;29.92;;;22.17;;
